Time;durP1;ratioP1;P1;durP2;ratioP2;P2;SDS_P1;SDS_P2;PMS_P1;PMS_P2;Temp;Humidity;BMP_temperature;BMP_pressure;BME280_temperature;BME280_humidity;BME280_pressure;Samples;Min_cycle;Max_cycle;Signal;HPM_P1;HPM_P2
2022/05/19 00:02:08;;;;;;;5.30;2.00;;;21.60;30.00;;;;;;5092839;28;20460;-33
2022/05/19 00:04:34;;;;;;;2.50;1.90;;;21.60;29.80;;;;;;5092668;28;20407;-33
2022/05/19 00:07:00;;;;;;;3.73;1.93;;;21.60;29.80;;;;;;5092531;28;20793;-33
2022/05/19 00:09:26;;;;;;;2.30;1.73;;;21.60;29.50;;;;;;5092647;28;20410;-33
2022/05/19 00:11:55;;;;;;;3.20;1.80;;;21.50;29.50;;;;;;5092464;28;20418;-33
2022/05/19 00:14:21;;;;;;;2.63;2.20;;;21.60;29.60;;;;;;5091212;28;20516;-33
2022/05/19 00:16:47;;;;;;;3.10;1.93;;;21.60;29.20;;;;;;5092307;28;20433;-33
2022/05/19 00:19:13;;;;;;;2.53;1.67;;;21.60;29.40;;;;;;5092449;28;20463;-33
2022/05/19 00:21:39;;;;;;;2.77;2.03;;;21.60;29.40;;;;;;5092414;28;20457;-33
2022/05/19 00:24:06;;;;;;;9.47;2.77;;;21.60;29.40;;;;;;5092519;28;20479;-33
2022/05/19 00:26:31;;;;;;;3.30;1.83;;;21.50;29.40;;;;;;5092152;28;20663;-33
2022/05/19 00:28:57;;;;;;;2.53;1.60;;;21.60;29.40;;;;;;5092225;28;20438;-33
2022/05/19 00:31:23;;;;;;;6.20;2.13;;;21.50;29.60;;;;;;5092548;28;20207;-33
2022/05/19 00:33:49;;;;;;;2.60;1.93;;;21.60;29.60;;;;;;5092307;28;20635;-33
2022/05/19 00:36:17;;;;;;;3.10;1.60;;;21.50;29.80;;;;;;5092055;28;20175;-33
2022/05/19 00:38:43;;;;;;;3.13;2.47;;;21.50;30.10;;;;;;5088883;22;20715;-35
2022/05/19 00:41:10;;;;;;;2.90;2.60;;;21.50;30.00;;;;;;5071841;28;20465;-35
2022/05/19 00:43:42;;;;;;;5.50;1.90;;;21.50;30.00;;;;;;5072025;28;20406;-35
2022/05/19 00:46:11;;;;;;;3.33;2.10;;;21.40;30.60;;;;;;5072940;28;20486;-35
2022/05/19 00:48:53;;;;;;;2.93;2.20;;;21.30;30.60;;;;;;5078356;28;21062;-35
2022/05/19 00:51:23;;;;;;;3.80;2.53;;;21.30;31.00;;;;;;5078522;28;20406;-35
2022/05/19 00:53:54;;;;;;;3.20;2.20;;;21.20;30.60;;;;;;5078671;28;20415;-35
2022/05/19 00:56:57;;;;;;;3.10;1.80;;;21.10;31.20;;;;;;5078539;28;20407;-35
2022/05/19 00:59:37;;;;;;;2.70;1.85;;;21.10;30.30;;;;;;5078615;28;20403;-35
2022/05/19 01:02:09;;;;;;;3.30;1.60;;;21.10;30.40;;;;;;5078431;28;20191;-35
2022/05/19 01:04:36;;;;;;;4.67;2.17;;;21.00;30.40;;;;;;5078494;28;20862;-35
2022/05/19 01:07:09;;;;;;;2.28;1.48;;;21.00;30.50;;;;;;5078224;28;20437;-35
2022/05/19 01:09:37;;;;;;;3.47;2.40;;;21.00;30.60;;;;;;5078485;28;20551;-35
2022/05/19 01:12:05;;;;;;;2.97;2.17;;;21.00;30.70;;;;;;5078474;28;20747;-35
2022/05/19 01:14:32;;;;;;;4.43;3.05;;;21.00;30.20;;;;;;5078290;28;20413;-35
2022/05/19 01:16:58;;;;;;;3.08;2.25;;;20.90;30.40;;;;;;5078320;28;20215;-35
2022/05/19 01:19:34;;;;;;;1.80;1.40;;;21.00;30.40;;;;;;5078343;28;20682;-35
2022/05/19 01:22:22;;;;;;;2.47;1.50;;;20.90;30.50;;;;;;5078249;28;20774;-35
2022/05/19 01:24:57;;;;;;;5.10;1.93;;;20.80;31.00;;;;;;5078097;28;20751;-35
2022/05/19 01:27:23;;;;;;;2.77;1.63;;;20.80;31.40;;;;;;5078012;28;20420;-35
2022/05/19 01:29:49;;;;;;;2.75;1.90;;;20.70;31.40;;;;;;5078249;28;20544;-36
2022/05/19 01:32:27;;;;;;;3.17;2.17;;;20.70;31.80;;;;;;5078263;28;20263;-35
2022/05/19 01:34:54;;;;;;;3.50;1.87;;;20.70;32.20;;;;;;5078245;28;20183;-35
2022/05/19 01:37:20;;;;;;;3.38;2.25;;;20.60;32.50;;;;;;5077805;28;20438;-35
2022/05/19 01:39:50;;;;;;;3.60;2.20;;;20.50;32.90;;;;;;5078152;28;20769;-35
2022/05/19 01:42:32;;;;;;;3.83;1.80;;;20.50;33.00;;;;;;5078181;28;20497;-35
2022/05/19 01:45:04;;;;;;;2.20;1.73;;;20.40;33.30;;;;;;5078223;28;20417;-35
2022/05/19 01:47:44;;;;;;;6.28;2.53;;;20.30;33.30;;;;;;5077837;28;20433;-36
2022/05/19 01:50:27;;;;;;;3.50;2.03;;;20.20;33.60;;;;;;5078241;28;20294;-35
2022/05/19 01:53:04;;;;;;;4.68;2.35;;;20.10;33.70;;;;;;5078029;28;20399;-36
2022/05/19 01:56:09;;;;;;;2.47;2.05;;;20.00;33.80;;;;;;5077975;28;20195;-35
2022/05/19 01:59:09;;;;;;;3.17;2.28;;;20.00;34.20;;;;;;5074115;28;20204;-35
2022/05/19 02:01:35;;;;;;;3.38;2.70;;;19.90;34.30;;;;;;5074484;28;20556;-36
2022/05/19 02:04:17;;;;;;;2.43;2.03;;;19.90;33.30;;;;;;5074802;28;20183;-35
2022/05/19 02:07:11;;;;;;;3.25;1.90;;;19.90;33.70;;;;;;5074528;28;20398;-35
2022/05/19 02:09:59;;;;;;;2.30;1.83;;;19.90;34.20;;;;;;5072755;28;20517;-35
2022/05/19 02:12:27;;;;;;;2.90;1.65;;;19.80;34.00;;;;;;5075122;28;20620;-35
2022/05/19 02:14:58;;;;;;;2.05;1.15;;;19.80;33.90;;;;;;5074427;28;20176;-35
2022/05/19 02:17:28;;;;;;;2.40;2.20;;;19.80;33.50;;;;;;5074270;28;20192;-35
2022/05/19 02:19:58;;;;;;;4.32;2.53;;;19.80;33.40;;;;;;5074454;28;20181;-35
2022/05/19 02:22:31;;;;;;;3.47;1.85;;;19.80;33.40;;;;;;5074448;28;20652;-35
2022/05/19 02:25:04;;;;;;;2.70;2.13;;;19.80;33.30;;;;;;5074462;28;20177;-35
2022/05/19 02:27:35;;;;;;;2.13;1.65;;;19.80;33.20;;;;;;5074040;28;20530;-35
2022/05/19 02:30:07;;;;;;;5.68;2.35;;;19.80;33.20;;;;;;5074472;28;20168;-35
2022/05/19 02:32:33;;;;;;;2.83;1.75;;;19.80;33.50;;;;;;5074312;28;20172;-35
2022/05/19 02:34:58;;;;;;;3.07;1.77;;;19.70;33.40;;;;;;5074294;28;20179;-35
2022/05/19 02:37:24;;;;;;;3.50;2.00;;;19.70;33.20;;;;;;5073716;28;20442;-35
2022/05/19 02:39:50;;;;;;;3.00;2.20;;;19.70;33.30;;;;;;5073995;28;20192;-35
2022/05/19 02:42:15;;;;;;;3.90;2.50;;;19.70;33.10;;;;;;5074294;28;20179;-35
2022/05/19 02:44:42;;;;;;;2.00;1.60;;;19.70;34.10;;;;;;5074037;28;20520;-35
2022/05/19 02:47:08;;;;;;;5.90;1.58;;;19.60;33.00;;;;;;5073801;28;20192;-35
2022/05/19 02:49:33;;;;;;;2.00;1.40;;;19.60;33.90;;;;;;5074414;28;20192;-35
2022/05/19 02:51:59;;;;;;;3.20;2.10;;;19.60;32.90;;;;;;5073868;28;20302;-35
2022/05/19 02:54:25;;;;;;;3.50;1.50;;;19.60;33.10;;;;;;5073721;28;20687;-35
2022/05/19 02:56:50;;;;;;;4.47;1.60;;;19.60;33.00;;;;;;5073560;28;20552;-35
2022/05/19 02:59:16;;;;;;;2.53;1.77;;;19.60;33.00;;;;;;5073742;28;20177;-35
2022/05/19 03:01:42;;;;;;;3.30;2.33;;;19.60;32.70;;;;;;5073632;28;20668;-35
2022/05/19 03:04:07;;;;;;;2.97;2.03;;;19.60;32.70;;;;;;5073644;28;20161;-35
2022/05/19 03:06:33;;;;;;;2.40;1.80;;;19.60;33.60;;;;;;5073511;28;20175;-35
2022/05/19 03:08:59;;;;;;;3.83;2.37;;;19.60;33.40;;;;;;5072984;28;20188;-35
2022/05/19 03:11:25;;;;;;;3.00;1.93;;;19.50;33.20;;;;;;5073641;28;20464;-35
2022/05/19 03:13:50;;;;;;;3.80;1.80;;;19.50;33.60;;;;;;5073453;28;20644;-35
2022/05/19 03:16:16;;;;;;;2.93;2.07;;;19.50;34.50;;;;;;5073505;28;20172;-35
2022/05/19 03:18:41;;;;;;;3.50;1.97;;;19.40;34.10;;;;;;5073135;28;20188;-35
2022/05/19 03:21:07;;;;;;;2.60;1.63;;;19.40;34.60;;;;;;5073223;28;20200;-35
2022/05/19 03:23:33;;;;;;;4.67;2.73;;;19.30;35.20;;;;;;5073157;28;20165;-35
2022/05/19 03:25:58;;;;;;;5.70;2.77;;;19.20;35.10;;;;;;5073083;28;20172;-35
2022/05/19 03:28:24;;;;;;;2.87;1.83;;;19.10;35.90;;;;;;5072951;28;20188;-35
2022/05/19 03:30:50;;;;;;;2.90;1.97;;;19.10;35.50;;;;;;5073097;28;20271;-35
2022/05/19 03:33:15;;;;;;;4.57;2.67;;;19.00;36.20;;;;;;5073052;28;20181;-36
2022/05/19 03:35:42;;;;;;;3.33;2.23;;;18.90;36.10;;;;;;5072941;28;20193;-36
2022/05/19 03:38:08;;;;;;;2.40;2.10;;;19.00;36.50;;;;;;5072431;28;20216;-35
2022/05/19 03:40:34;;;;;;;8.35;3.22;;;18.90;36.70;;;;;;5072995;28;20211;-35
2022/05/19 03:43:00;;;;;;;2.90;2.58;;;18.90;36.60;;;;;;5072793;28;20629;-35
2022/05/19 03:45:25;;;;;;;2.70;2.50;;;18.80;37.50;;;;;;5072812;28;20234;-35
2022/05/19 03:47:51;;;;;;;3.70;2.00;;;18.80;37.40;;;;;;5072478;28;20184;-35
2022/05/19 03:50:17;;;;;;;2.93;2.37;;;18.80;37.50;;;;;;5072669;28;20418;-35
2022/05/19 03:52:43;;;;;;;3.70;2.20;;;18.80;37.50;;;;;;5072505;28;20529;-35
2022/05/19 03:55:12;;;;;;;2.75;2.10;;;18.80;37.60;;;;;;5072836;28;20411;-35
2022/05/19 03:57:38;;;;;;;2.95;2.45;;;18.80;37.90;;;;;;5072260;28;20196;-35
2022/05/19 04:00:09;;;;;;;3.97;1.85;;;18.80;37.90;;;;;;5072471;28;20234;-35
2022/05/19 04:02:35;;;;;;;3.00;2.03;;;18.80;38.20;;;;;;5072557;28;20211;-35
2022/05/19 04:05:02;;;;;;;5.17;2.57;;;18.80;38.10;;;;;;5072399;28;20636;-35
2022/05/19 04:07:28;;;;;;;3.10;2.40;;;18.80;38.50;;;;;;5072344;28;20188;-35
2022/05/19 04:09:54;;;;;;;6.00;2.87;;;18.80;38.30;;;;;;5072342;28;20266;-35
2022/05/19 04:12:20;;;;;;;3.93;2.50;;;18.90;38.60;;;;;;5072570;28;20246;-35
2022/05/19 04:14:46;;;;;;;2.42;2.20;;;19.00;38.60;;;;;;5072304;28;20667;-35
2022/05/19 04:17:12;;;;;;;2.75;1.65;;;18.90;38.70;;;;;;5071984;28;20192;-35
2022/05/19 04:19:38;;;;;;;3.53;2.87;;;19.00;38.20;;;;;;5072138;28;20294;-34
2022/05/19 04:22:04;;;;;;;9.17;2.70;;;19.10;38.60;;;;;;5071421;28;20200;-34
2022/05/19 04:24:29;;;;;;;2.80;2.37;;;19.10;38.20;;;;;;5072258;28;20164;-34
2022/05/19 04:26:55;;;;;;;3.33;2.23;;;19.20;37.90;;;;;;5071944;28;20399;-35
2022/05/19 04:29:21;;;;;;;3.50;2.57;;;19.20;37.30;;;;;;5072359;28;20207;-34
2022/05/19 04:31:46;;;;;;;3.30;2.20;;;19.30;36.80;;;;;;5072141;28;20167;-35
2022/05/19 04:34:12;;;;;;;3.77;2.37;;;19.40;36.30;;;;;;5072070;28;20513;-35
2022/05/19 04:36:38;;;;;;;7.73;2.10;;;19.60;35.80;;;;;;5071935;28;20169;-35
2022/05/19 04:39:04;;;;;;;2.33;1.83;;;19.70;35.10;;;;;;5071802;28;20192;-34
2022/05/19 04:41:29;;;;;;;2.63;2.07;;;19.80;35.00;;;;;;5072133;28;20704;-35
2022/05/19 04:43:55;;;;;;;3.10;2.03;;;19.80;34.70;;;;;;5072224;28;20177;-35
2022/05/19 04:46:21;;;;;;;2.80;1.80;;;19.90;34.40;;;;;;5071990;28;20168;-35
2022/05/19 04:48:47;;;;;;;2.53;2.17;;;19.90;34.20;;;;;;5071573;28;21144;-35
2022/05/19 04:51:12;;;;;;;2.77;2.57;;;20.00;34.20;;;;;;5071827;28;20187;-35
2022/05/19 04:53:38;;;;;;;3.30;2.43;;;20.10;34.40;;;;;;5072080;28;20671;-35
2022/05/19 04:56:04;;;;;;;3.27;2.77;;;20.20;34.30;;;;;;5071815;28;20168;-35
2022/05/19 04:58:30;;;;;;;3.20;2.47;;;20.30;34.10;;;;;;5071427;28;20189;-35
2022/05/19 05:00:55;;;;;;;4.20;2.50;;;20.30;33.70;;;;;;5071719;28;20442;-35
2022/05/19 05:03:22;;;;;;;3.50;2.10;;;20.40;33.70;;;;;;5071707;28;20175;-35
2022/05/19 05:05:48;;;;;;;5.43;2.22;;;20.50;33.50;;;;;;5071766;28;20644;-35
2022/05/19 05:08:14;;;;;;;3.30;2.13;;;20.50;33.30;;;;;;5071761;28;20286;-35
2022/05/19 05:10:41;;;;;;;6.20;2.20;;;20.50;33.90;;;;;;5071902;28;20168;-35
2022/05/19 05:13:12;;;;;;;3.38;2.10;;;20.60;33.10;;;;;;5071815;28;20191;-35
2022/05/19 05:15:38;;;;;;;2.88;2.05;;;20.60;33.10;;;;;;5071623;28;20660;-35
2022/05/19 05:18:05;;;;;;;13.57;1.92;;;20.70;33.10;;;;;;5071334;28;20197;-35
2022/05/19 05:20:31;;;;;;;6.73;2.00;;;20.80;33.00;;;;;;5071484;28;20216;-35
2022/05/19 05:22:57;;;;;;;3.73;2.60;;;20.80;32.80;;;;;;5071792;28;20989;-35
2022/05/19 05:25:23;;;;;;;5.30;2.40;;;20.90;32.90;;;;;;5071528;28;20418;-35
2022/05/19 05:27:48;;;;;;;2.50;1.70;;;20.90;33.10;;;;;;5071334;28;20512;-35
2022/05/19 05:30:14;;;;;;;3.10;2.10;;;21.00;32.70;;;;;;5071540;28;20434;-35
2022/05/19 05:32:40;;;;;;;2.45;1.88;;;21.20;32.50;;;;;;5072296;28;20173;-35
2022/05/19 05:35:08;;;;;;;2.30;1.63;;;21.20;32.00;;;;;;5075203;28;20183;-35
2022/05/19 05:37:34;;;;;;;5.10;2.43;;;21.20;32.20;;;;;;5074720;28;20976;-35
2022/05/19 05:40:01;;;;;;;2.70;2.30;;;21.30;32.30;;;;;;5075004;28;20911;-35
2022/05/19 05:42:26;;;;;;;3.27;2.13;;;21.40;32.10;;;;;;5075094;28;20821;-35
2022/05/19 05:44:52;;;;;;;2.17;1.70;;;21.50;32.30;;;;;;5075043;28;20407;-35
2022/05/19 05:47:18;;;;;;;3.20;1.90;;;21.60;31.40;;;;;;5074685;28;20188;-35
2022/05/19 05:49:44;;;;;;;2.83;2.10;;;21.60;31.40;;;;;;5075329;28;20417;-35
2022/05/19 05:52:09;;;;;;;2.87;2.47;;;21.70;31.10;;;;;;5074945;28;20219;-35
2022/05/19 05:54:35;;;;;;;4.23;2.20;;;21.70;31.50;;;;;;5075038;28;20188;-35
2022/05/19 05:57:01;;;;;;;4.00;2.40;;;21.80;31.30;;;;;;5074693;28;20215;-35
2022/05/19 05:59:27;;;;;;;2.87;1.90;;;21.80;31.10;;;;;;5074892;28;20845;-35
2022/05/19 06:01:52;;;;;;;3.47;2.50;;;21.90;31.30;;;;;;5074589;28;20544;-35
2022/05/19 06:04:18;;;;;;;2.20;1.60;;;22.00;30.80;;;;;;5075063;28;20173;-35
2022/05/19 06:06:45;;;;;;;2.77;1.83;;;22.10;30.90;;;;;;5074736;28;20218;-35
2022/05/19 06:09:12;;;;;;;2.33;1.73;;;22.20;31.00;;;;;;5074835;28;20180;-35
2022/05/19 06:11:38;;;;;;;2.30;1.60;;;22.30;31.00;;;;;;5074745;28;20438;-35
2022/05/19 06:14:04;;;;;;;4.23;2.10;;;22.40;30.70;;;;;;5075068;28;20477;-35
2022/05/19 06:16:30;;;;;;;3.20;1.93;;;22.50;30.70;;;;;;5074417;28;20177;-35
2022/05/19 06:18:56;;;;;;;2.80;2.13;;;22.60;30.90;;;;;;5074922;28;20196;-35
2022/05/19 06:21:22;;;;;;;3.20;1.60;;;22.70;30.60;;;;;;5074562;28;20472;-35
2022/05/19 06:23:48;;;;;;;2.40;1.30;;;22.80;30.70;;;;;;5074542;28;20486;-35
2022/05/19 06:26:14;;;;;;;3.30;2.00;;;22.90;30.20;;;;;;5074355;28;20180;-35
2022/05/19 06:28:39;;;;;;;2.57;2.00;;;23.00;30.30;;;;;;5073970;28;20435;-35
2022/05/19 06:31:05;;;;;;;2.63;2.07;;;23.10;30.60;;;;;;5074273;28;20181;-35
2022/05/19 06:33:34;;;;;;;3.03;2.23;;;23.20;29.60;;;;;;5074443;28;20173;-35
2022/05/19 06:36:00;;;;;;;3.00;2.33;;;23.30;30.10;;;;;;5074362;28;20415;-35
2022/05/19 06:38:25;;;;;;;2.30;1.77;;;23.40;29.40;;;;;;5073846;28;21026;-35
2022/05/19 06:40:51;;;;;;;2.50;2.10;;;23.50;29.90;;;;;;5074126;28;20549;-35
2022/05/19 06:43:19;;;;;;;5.23;1.93;;;23.60;29.50;;;;;;5074050;28;20173;-35
2022/05/19 06:45:45;;;;;;;2.80;1.80;;;23.60;28.60;;;;;;5073158;28;20411;-35
2022/05/19 06:48:11;;;;;;;2.63;1.63;;;23.70;28.60;;;;;;5073861;28;20434;-35
2022/05/19 06:50:38;;;;;;;2.73;1.57;;;23.70;28.30;;;;;;5074212;28;20403;-36
2022/05/19 06:53:04;;;;;;;3.53;1.90;;;23.80;28.90;;;;;;5073894;28;20415;-36
2022/05/19 06:55:37;;;;;;;2.20;1.50;;;23.90;28.60;;;;;;5073808;28;20426;-36
2022/05/19 06:58:03;;;;;;;3.93;1.77;;;24.00;28.20;;;;;;5073474;28;20427;-36
2022/05/19 07:00:29;;;;;;;2.37;1.40;;;24.10;28.40;;;;;;5073552;28;21041;-36
2022/05/19 07:02:58;;;;;;;2.40;1.60;;;24.20;26.20;;;;;;5073784;28;20403;-36
2022/05/19 07:05:28;;;;;;;2.60;1.17;;;24.30;27.20;;;;;;5073776;28;20829;-36
2022/05/19 07:07:53;;;;;;;2.00;1.43;;;24.40;27.30;;;;;;5073264;28;21009;-36
2022/05/19 07:10:22;;;;;;;3.30;1.80;;;24.50;27.10;;;;;;5073568;28;20402;-36
2022/05/19 07:12:48;;;;;;;2.83;1.73;;;24.50;25.10;;;;;;5073349;28;20411;-36
2022/05/19 07:15:16;;;;;;;3.13;2.10;;;24.50;26.40;;;;;;5073461;28;20407;-36
2022/05/19 07:17:42;;;;;;;2.40;1.20;;;24.60;26.20;;;;;;5073123;28;20427;-36
2022/05/19 07:22:53;;;;;;;3.40;1.47;;;24.80;25.00;;;;;;5073597;28;20187;-36
2022/05/19 07:25:19;;;;;;;4.13;1.63;;;25.00;26.20;;;;;;5073127;28;20427;-36
2022/05/19 07:27:45;;;;;;;2.43;1.60;;;25.10;25.60;;;;;;5073129;28;20454;-36
2022/05/19 07:30:11;;;;;;;7.23;1.80;;;25.30;26.30;;;;;;5073131;28;20173;-36
2022/05/19 07:32:37;;;;;;;3.20;1.80;;;25.40;25.70;;;;;;5073216;28;20407;-36
2022/05/19 07:35:05;;;;;;;2.13;1.30;;;25.50;26.00;;;;;;5073107;28;20924;-36
2022/05/19 07:37:31;;;;;;;2.47;1.50;;;25.60;24.80;;;;;;5072523;28;20300;-36
2022/05/19 07:39:57;;;;;;;2.70;1.70;;;25.70;24.60;;;;;;5072790;28;20435;-36
2022/05/19 07:42:24;;;;;;;3.10;1.40;;;25.70;24.00;;;;;;5073004;28;20208;-36
2022/05/19 07:44:51;;;;;;;1.90;1.10;;;25.80;24.00;;;;;;5072907;28;20434;-36
2022/05/19 07:47:17;;;;;;;2.13;1.13;;;25.80;23.50;;;;;;5072534;28;20476;-36
2022/05/19 07:49:43;;;;;;;2.80;1.33;;;25.90;24.30;;;;;;5072710;28;20460;-36
2022/05/19 07:52:09;;;;;;;2.70;1.50;;;26.10;24.90;;;;;;5072600;28;20399;-36
2022/05/19 07:54:36;;;;;;;4.83;1.50;;;26.10;23.70;;;;;;5072580;28;20180;-36
2022/05/19 07:57:03;;;;;;;2.27;1.20;;;26.20;25.10;;;;;;5071561;28;20419;-36
2022/05/19 07:59:30;;;;;;;2.20;1.47;;;26.30;24.70;;;;;;5072694;28;20403;-36
2022/05/19 08:01:56;;;;;;;2.10;1.30;;;26.40;23.60;;;;;;5072543;28;20454;-36
2022/05/19 08:04:24;;;;;;;1.73;1.20;;;26.50;24.10;;;;;;5072545;28;20736;-36
2022/05/19 08:06:49;;;;;;;6.00;1.80;;;26.50;23.50;;;;;;5072164;28;20494;-36
2022/05/19 08:12:00;;;;;;;7.00;1.30;;;26.70;23.10;;;;;;5072709;28;20402;-36
2022/05/19 08:17:10;;;;;;;1.90;1.17;;;26.90;23.10;;;;;;5072083;28;20417;-36
2022/05/19 08:19:39;;;;;;;2.70;1.57;;;26.90;21.00;;;;;;5072171;28;20414;-36
2022/05/19 08:22:06;;;;;;;2.03;1.30;;;27.10;22.90;;;;;;5072544;28;20486;-36
2022/05/19 08:24:32;;;;;;;1.93;1.13;;;27.20;21.90;;;;;;5072828;28;20894;-36
2022/05/19 08:27:00;;;;;;;2.67;1.50;;;27.40;22.80;;;;;;5072041;28;20414;-36
2022/05/19 08:29:26;;;;;;;2.07;1.20;;;27.50;21.60;;;;;;5072065;28;20403;-36
2022/05/19 08:31:52;;;;;;;4.13;1.00;;;27.60;20.40;;;;;;5072020;28;20411;-36
2022/05/19 08:34:18;;;;;;;1.83;1.10;;;27.60;20.10;;;;;;5072521;28;20411;-36
2022/05/19 08:36:44;;;;;;;2.00;1.17;;;27.60;19.60;;;;;;5071895;28;20506;-36
2022/05/19 08:39:11;;;;;;;1.90;1.20;;;27.70;18.60;;;;;;5071910;28;20435;-36
2022/05/19 08:41:39;;;;;;;2.43;1.13;;;27.60;19.20;;;;;;5072012;28;20492;-36
2022/05/19 08:44:15;;;;;;;2.33;1.33;;;27.60;19.00;;;;;;5071975;28;20453;-36
2022/05/19 08:46:48;;;;;;;1.80;0.90;;;27.70;19.40;;;;;;5071907;28;20399;-36
2022/05/19 08:49:31;;;;;;;1.70;1.13;;;27.80;19.40;;;;;;5072177;28;20395;-36
2022/05/19 08:52:03;;;;;;;2.50;1.67;;;27.90;19.80;;;;;;5072097;28;20499;-36
2022/05/19 08:54:29;;;;;;;2.07;1.27;;;27.90;19.20;;;;;;5072002;28;20418;-36
2022/05/19 08:57:06;;;;;;;2.07;1.30;;;28.00;20.10;;;;;;5071529;28;20403;-36
2022/05/19 09:00:06;;;;;;;2.63;1.67;;;28.10;19.20;;;;;;5072156;28;20402;-36
2022/05/19 09:02:58;;;;;;;1.90;1.30;;;28.00;18.80;;;;;;5071908;28;20411;-36
2022/05/19 09:05:46;;;;;;;2.53;1.47;;;28.00;18.90;;;;;;5063439;28;20870;-36
2022/05/19 09:08:24;;;;;;;1.90;1.30;;;28.10;18.70;;;;;;5073469;28;20410;-36
2022/05/19 09:11:14;;;;;;;1.60;0.87;;;28.20;19.40;;;;;;5075783;28;20468;-36
2022/05/19 09:13:53;;;;;;;1.50;0.80;;;28.30;19.70;;;;;;5075622;28;20426;-36
2022/05/19 09:16:23;;;;;;;2.20;1.43;;;28.40;19.40;;;;;;5075913;28;20403;-36
2022/05/19 09:18:59;;;;;;;2.80;1.60;;;28.50;18.80;;;;;;5075359;28;20548;-36
2022/05/19 09:21:26;;;;;;;2.20;1.33;;;28.40;17.50;;;;;;5075758;28;20446;-36
2022/05/19 09:23:52;;;;;;;2.10;1.40;;;28.30;18.00;;;;;;5075509;28;20398;-36
2022/05/19 09:26:42;;;;;;;1.60;1.07;;;28.30;18.50;;;;;;5075448;28;20506;-36
2022/05/19 09:29:12;;;;;;;1.90;1.20;;;28.40;19.50;;;;;;5075237;28;21113;-36
2022/05/19 09:31:54;;;;;;;1.93;1.50;;;28.40;19.20;;;;;;5075333;28;20846;-36
2022/05/19 09:34:26;;;;;;;2.70;1.30;;;28.40;18.70;;;;;;5075263;28;20402;-36
2022/05/19 09:37:09;;;;;;;2.23;1.00;;;28.50;18.60;;;;;;5074906;28;20902;-37
2022/05/19 09:39:44;;;;;;;2.13;1.30;;;28.50;19.40;;;;;;5075371;28;20418;-36
2022/05/19 09:42:14;;;;;;;2.60;1.60;;;28.70;19.40;;;;;;5075232;28;20532;-36
2022/05/19 09:44:50;;;;;;;2.73;1.00;;;28.60;18.50;;;;;;5075067;28;20431;-36
2022/05/19 09:47:27;;;;;;;2.50;1.10;;;28.50;18.60;;;;;;5075057;28;20422;-36
2022/05/19 09:49:57;;;;;;;2.47;1.43;;;28.60;18.10;;;;;;5074991;28;20890;-37
2022/05/19 09:52:26;;;;;;;2.17;1.33;;;28.70;18.50;;;;;;5074968;28;20415;-37
2022/05/19 09:54:59;;;;;;;2.10;1.33;;;28.70;18.40;;;;;;5074929;28;20403;-36
2022/05/19 09:57:33;;;;;;;1.80;1.40;;;28.80;19.00;;;;;;5074530;28;20974;-36
2022/05/19 10:00:04;;;;;;;2.77;1.43;;;28.90;17.70;;;;;;5075108;28;20431;-36
2022/05/19 10:02:45;;;;;;;3.50;1.60;;;28.80;17.60;;;;;;5074666;28;20996;-37
2022/05/19 10:05:39;;;;;;;2.77;1.30;;;28.90;18.30;;;;;;5074887;28;20410;-37
2022/05/19 10:08:12;;;;;;;3.53;1.20;;;29.00;18.70;;;;;;5074731;28;20518;-36
2022/05/19 10:10:59;;;;;;;2.90;1.23;;;29.10;17.80;;;;;;5074832;28;20406;-37
2022/05/19 10:13:32;;;;;;;3.60;1.33;;;29.10;17.90;;;;;;5074768;28;20410;-36
2022/05/19 10:16:17;;;;;;;2.97;1.93;;;29.20;17.60;;;;;;5074538;28;20455;-36
2022/05/19 10:19:03;;;;;;;1.90;1.30;;;29.20;17.80;;;;;;5073918;28;20427;-37
2022/05/19 10:21:45;;;;;;;3.07;1.17;;;29.20;18.00;;;;;;5074148;28;20858;-37
2022/05/19 10:24:25;;;;;;;1.90;1.00;;;29.20;18.00;;;;;;5074490;28;20402;-37
2022/05/19 10:34:05;;;;;;;2.13;1.03;;;29.20;17.10;;;;;;5074386;28;20427;-37
2022/05/19 10:36:46;;;;;;;6.40;1.30;;;29.40;18.00;;;;;;4980468;28;20845;-38
2022/05/19 10:39:30;;;;;;;1.70;1.20;;;29.50;17.20;;;;;;5074167;28;20469;-37
2022/05/19 10:42:25;;;;;;;2.27;1.07;;;29.60;17.20;;;;;;5074883;28;20456;-36
2022/05/19 10:45:05;;;;;;;3.20;1.40;;;29.70;16.80;;;;;;5074096;28;20406;-36
2022/05/19 10:47:52;;;;;;;2.27;1.37;;;29.70;16.70;;;;;;5073711;28;20426;-37
2022/05/19 10:50:35;;;;;;;2.03;1.17;;;29.70;16.10;;;;;;5074210;28;20402;-36
2022/05/19 10:53:28;;;;;;;3.70;2.50;;;29.70;16.20;;;;;;5073940;28;21002;-37
2022/05/19 10:56:12;;;;;;;2.33;1.13;;;29.60;16.40;;;;;;5073855;28;20399;-36
2022/05/19 10:58:54;;;;;;;2.10;1.07;;;29.60;15.70;;;;;;5073626;28;20437;-37
2022/05/19 11:02:01;;;;;;;3.17;1.27;;;29.60;15.60;;;;;;5073719;28;20521;-36
2022/05/19 11:04:35;;;;;;;3.13;1.50;;;29.70;15.40;;;;;;5011524;28;20413;-37
2022/05/19 11:07:16;;;;;;;6.43;1.40;;;29.70;16.50;;;;;;5011179;28;20433;-36
2022/05/19 11:09:58;;;;;;;2.17;1.37;;;29.80;16.00;;;;;;5011502;28;20774;-37
2022/05/19 11:12:46;;;;;;;2.03;1.03;;;29.90;14.60;;;;;;5011200;28;20958;-37
2022/05/19 11:15:41;;;;;;;2.33;1.30;;;29.90;15.20;;;;;;5011484;28;20416;-37
2022/05/19 11:18:10;;;;;;;1.90;1.10;;;29.80;15.10;;;;;;5010991;28;20492;-37
2022/05/19 11:21:11;;;;;;;2.10;1.20;;;29.90;15.40;;;;;;5011027;28;20488;-37
2022/05/19 11:24:05;;;;;;;1.93;1.13;;;29.90;15.20;;;;;;5011162;28;20409;-37
2022/05/19 11:26:46;;;;;;;2.07;1.27;;;30.10;15.10;;;;;;5011134;28;20417;-37
2022/05/19 11:29:28;;;;;;;2.07;1.10;;;30.20;14.10;;;;;;5011249;28;20405;-37
2022/05/19 11:32:15;;;;;;;1.73;0.87;;;30.30;14.40;;;;;;5010933;28;20540;-37
2022/05/19 11:35:05;;;;;;;2.07;1.00;;;30.30;14.00;;;;;;5011120;28;20412;-37
2022/05/19 11:37:34;;;;;;;7.27;1.13;;;30.40;14.50;;;;;;5017620;28;20461;-38
2022/05/19 11:40:21;;;;;;;1.80;1.10;;;30.40;13.70;;;;;;5072853;28;20407;-37
2022/05/19 11:43:08;;;;;;;2.67;0.90;;;30.40;13.70;;;;;;5072900;28;20514;-37
2022/05/19 11:45:46;;;;;;;1.80;0.90;;;30.40;13.80;;;;;;5072821;28;20394;-37
2022/05/19 11:57:25;;;;;;;3.73;1.03;;;30.80;14.50;;;;;;5072380;28;20446;-37
2022/05/19 11:59:56;;;;;;;2.17;0.97;;;30.80;13.30;;;;;;5072613;28;20402;-37
2022/05/19 12:02:30;;;;;;;1.80;0.90;;;30.80;13.90;;;;;;5072443;28;20439;-37
2022/05/19 12:05:10;;;;;;;1.93;1.13;;;30.90;12.90;;;;;;5072604;28;20409;-37
2022/05/19 12:07:49;;;;;;;2.60;1.30;;;30.80;14.20;;;;;;5072213;28;20424;-37
2022/05/19 12:10:19;;;;;;;3.50;1.00;;;31.00;14.60;;;;;;5072400;28;20409;-38
2022/05/19 12:12:53;;;;;;;2.33;1.00;;;31.10;12.50;;;;;;5072442;28;20952;-37
2022/05/19 12:15:27;;;;;;;2.87;1.50;;;31.00;14.10;;;;;;5072489;28;20407;-37
2022/05/19 12:17:59;;;;;;;1.70;1.03;;;31.00;15.00;;;;;;5072197;28;20419;-37
2022/05/19 12:20:39;;;;;;;4.10;0.90;;;31.10;14.70;;;;;;5072038;28;20788;-36
2022/05/19 12:23:27;;;;;;;2.13;0.90;;;31.30;13.70;;;;;;5072111;28;20433;-37
2022/05/19 12:26:16;;;;;;;1.80;1.10;;;31.30;14.90;;;;;;5062560;28;20415;-36
2022/05/19 12:28:44;;;;;;;9.20;1.20;;;31.30;13.50;;;;;;5071885;28;20425;-36
2022/05/19 12:34:50;;;;;;;1.60;0.90;;;31.40;13.50;;;;;;5072440;28;20930;-37
2022/05/19 12:37:15;;;;;;;1.90;1.20;;;31.40;13.90;;;;;;5065606;28;20822;-37
2022/05/19 12:39:47;;;;;;;1.67;1.03;;;31.40;13.50;;;;;;5071901;28;20911;-37
2022/05/19 12:42:45;;;;;;;1.80;0.90;;;31.40;14.40;;;;;;5071597;28;20226;-37
2022/05/19 12:45:25;;;;;;;1.57;1.00;;;31.50;14.50;;;;;;5038249;28;20411;-37
2022/05/19 12:48:21;;;;;;;2.53;1.10;;;31.50;14.50;;;;;;5071787;28;20429;-37
2022/05/19 12:51:15;;;;;;;2.80;1.20;;;31.50;15.10;;;;;;5072210;28;20948;-37
2022/05/19 12:53:52;;;;;;;1.83;1.30;;;31.40;14.30;;;;;;5045124;28;20424;-37
2022/05/19 12:56:41;;;;;;;4.63;2.43;;;31.30;14.80;;;;;;5071876;28;20406;-37
2022/05/19 12:59:29;;;;;;;2.47;1.33;;;31.20;15.60;;;;;;5071966;28;20418;-37
2022/05/19 13:01:58;;;;;;;2.27;1.20;;;31.10;15.00;;;;;;5070626;28;20485;-37
2022/05/19 13:04:36;;;;;;;1.63;0.80;;;30.90;14.60;;;;;;5071883;28;20400;-37
2022/05/19 13:07:11;;;;;;;1.50;0.83;;;30.90;15.00;;;;;;5071652;28;20420;-37
2022/05/19 13:09:37;;;;;;;4.57;1.37;;;30.80;14.60;;;;;;5071644;28;20896;-37
2022/05/19 13:12:18;;;;;;;3.30;1.73;;;30.80;15.10;;;;;;5071837;28;20411;-37
2022/05/19 13:14:51;;;;;;;1.90;1.10;;;30.90;14.90;;;;;;5071717;28;20400;-37
2022/05/19 13:17:32;;;;;;;1.93;0.90;;;31.00;15.40;;;;;;5071337;28;20423;-37
2022/05/19 13:19:58;;;;;;;2.00;1.13;;;31.20;15.30;;;;;;5071843;28;20402;-37
2022/05/19 13:22:33;;;;;;;1.70;1.03;;;31.40;15.00;;;;;;5071638;28;20788;-37
2022/05/19 13:25:05;;;;;;;2.77;1.10;;;31.60;14.20;;;;;;5071715;28;20417;-37
2022/05/19 13:30:29;;;;;;;1.70;1.00;;;31.60;14.60;;;;;;5071610;28;20484;-37
2022/05/19 13:33:07;;;;;;;2.63;1.20;;;31.60;15.10;;;;;;5071805;28;20413;-37
2022/05/19 13:35:34;;;;;;;1.50;0.87;;;31.60;15.30;;;;;;5071564;28;20441;-37
2022/05/19 13:38:01;;;;;;;2.17;1.10;;;31.70;15.00;;;;;;5071004;28;20535;-37
2022/05/19 13:40:34;;;;;;;2.30;1.07;;;31.70;15.00;;;;;;5071287;28;20409;-37
2022/05/19 13:43:07;;;;;;;2.00;1.00;;;31.70;15.10;;;;;;5071495;28;20401;-37